Time;durP1;ratioP1;P1;durP2;ratioP2;P2;SDS_P1;SDS_P2;PMS_P1;PMS_P2;Temp;Humidity;BMP_temperature;BMP_pressure;BME280_temperature;BME280_humidity;BME280_pressure;Samples;Min_cycle;Max_cycle;Signal;HPM_P1;HPM_P2
2020/12/26 00:00:34;;;;;;;;;;;;;;;1.11;75.20;100655.28;3848710;23;20032;-76
2020/12/26 00:02:06;;;;;;;16.77;8.30;;;;;;;1.13;75.37;100649.03;3853710;23;19916;-76
2020/12/26 00:03:37;;;;;;;16.60;8.90;;;;;;;1.04;75.87;100652.91;3850675;23;20032;-76
2020/12/26 00:05:08;;;;;;;;;;;;;;;0.86;76.36;100661.63;3855256;23;20044;-76
2020/12/26 00:06:38;;;;;;;16.27;8.43;;;;;;;0.91;76.14;100654.41;3833846;23;20269;-75
2020/12/26 00:08:09;;;;;;;;;;;;;;;0.80;76.86;100656.63;3835655;23;20021;-76
2020/12/26 00:09:40;;;;;;;13.98;8.00;;;;;;;0.88;76.28;100660.66;3850601;23;19969;-76
2020/12/26 00:11:14;;;;;;;15.30;8.82;;;;;;;0.93;76.04;100665.72;3854936;23;20102;-76
2020/12/26 00:12:46;;;;;;;14.35;8.23;;;;;;;0.97;76.01;100664.66;3834077;23;20462;-76
2020/12/26 00:14:19;;;;;;;15.55;7.45;;;;;;;0.93;76.06;100663.94;3833051;23;20132;-76
2020/12/26 00:15:50;;;;;;;10.68;6.57;;;;;;;0.97;76.11;100669.91;3835474;23;20087;-76
2020/12/26 00:17:21;;;;;;;;;;;;;;;0.87;76.17;100674.75;3832949;23;20197;-75
2020/12/26 00:18:52;;;;;;;14.70;6.78;;;;;;;0.93;76.19;100668.34;3836648;23;19927;-75
2020/12/26 00:20:24;;;;;;;12.40;7.22;;;;;;;0.99;75.62;100669.88;3832701;23;20029;-75
2020/12/26 00:21:55;;;;;;;13.95;7.43;;;;;;;1.08;75.65;100677.34;3835041;23;20025;-76
2020/12/26 00:23:26;;;;;;;11.35;7.15;;;;;;;1.09;75.69;100668.50;3832247;23;20047;-76
2020/12/26 00:24:57;;;;;;;14.30;8.07;;;;;;;1.09;75.73;100677.28;3835720;23;20032;-76
2020/12/26 00:26:29;;;;;;;12.55;6.43;;;;;;;1.11;75.68;100671.94;3835115;23;20032;-75
2020/12/26 00:28:01;;;;;;;10.38;6.88;;;;;;;1.12;75.84;100672.81;3853268;23;20527;-75
2020/12/26 00:29:32;;;;;;;14.63;7.22;;;;;;;1.12;75.70;100678.06;3849469;23;20032;-75
2020/12/26 00:31:04;;;;;;;13.30;7.32;;;;;;;1.08;75.80;100672.94;3835960;23;20040;-76
2020/12/26 00:32:35;;;;;;;16.63;8.13;;;;;;;1.07;75.79;100681.75;3833969;23;20021;-76
2020/12/26 00:34:06;;;;;;;13.07;8.27;;;;;;;1.04;76.01;100687.16;3835402;23;20041;-75
2020/12/26 00:35:37;;;;;;;15.40;8.88;;;;;;;1.02;76.06;100689.00;3837362;23;20035;-76
2020/12/26 00:37:08;;;;;;;;;;;;;;;0.94;76.13;100685.88;3854917;23;20368;-75
2020/12/26 00:38:39;;;;;;;16.85;6.80;;;;;;;0.98;75.83;100690.06;3851588;23;19938;-76
2020/12/26 00:40:10;;;;;;;13.77;7.50;;;;;;;0.91;75.83;100688.63;3855272;23;20553;-76
2020/12/26 00:41:45;;;;;;;;;;;;;;;0.77;75.87;100695.34;3847303;23;20052;-75
2020/12/26 00:43:16;;;;;;;11.55;6.35;;;;;;;0.82;75.87;100695.13;3836129;23;19939;-75
2020/12/26 00:44:47;;;;;;;;;;;;;;;0.74;75.77;100692.84;3833951;23;20021;-76
2020/12/26 00:46:21;;;;;;;11.68;6.70;;;;;;;0.78;75.68;100686.50;3834681;23;19916;-75
2020/12/26 00:47:52;;;;;;;13.05;7.68;;;;;;;0.84;75.73;100692.44;3833193;23;20351;-75
2020/12/26 00:49:25;;;;;;;15.65;8.40;;;;;;;0.82;75.47;100696.94;3835914;23;20059;-75
2020/12/26 00:50:56;;;;;;;13.35;7.00;;;;;;;0.76;75.50;100692.78;3832488;23;20025;-75
2020/12/26 00:52:28;;;;;;;15.95;7.85;;;;;;;0.74;75.53;100694.59;3834635;23;20079;-75
2020/12/26 00:53:59;;;;;;;14.38;7.88;;;;;;;0.70;75.61;100693.88;3834293;23;20028;-75
2020/12/26 00:55:30;;;;;;;13.50;7.20;;;;;;;0.70;75.46;100693.88;3834021;23;20025;-75
2020/12/26 00:57:03;;;;;;;;;;;;;;;0.63;75.93;100705.59;3834212;23;20540;-75
2020/12/26 00:58:34;;;;;;;12.88;7.53;;;;;;;0.70;76.03;100703.56;3835105;23;19954;-76
2020/12/26 01:00:05;;;;;;;13.20;8.10;;;;;;;0.74;75.87;100703.38;3830574;23;20056;-75
2020/12/26 01:01:36;;;;;;;;;;;;;;;0.64;75.78;100699.44;3835472;23;20386;-75
2020/12/26 01:03:08;;;;;;;14.02;7.88;;;;;;;0.65;75.78;100705.53;3832769;23;19917;-76
2020/12/26 01:04:39;;;;;;;15.52;9.13;;;;;;;0.60;75.97;100703.09;3835990;23;20107;-75
2020/12/26 01:06:14;;;;;;;18.38;8.18;;;;;;;0.56;75.88;100705.00;3832194;23;20032;-76
2020/12/26 01:07:45;;;;;;;12.98;8.00;;;;;;;0.57;75.79;100703.22;3835657;23;20029;-76
2020/12/26 01:09:17;;;;;;;13.15;6.85;;;;;;;0.58;75.87;100707.56;3845433;23;20098;-76
2020/12/26 01:10:48;;;;;;;11.82;6.10;;;;;;;0.60;75.89;100708.34;3854149;23;20024;-76
2020/12/26 01:12:20;;;;;;;12.45;6.78;;;;;;;0.62;75.84;100711.78;3838481;23;20033;-76
2020/12/26 01:13:51;;;;;;;10.25;6.05;;;;;;;0.62;75.85;100717.06;3836178;23;20025;-76
2020/12/26 01:15:23;;;;;;;10.60;5.80;;;;;;;0.64;75.86;100720.47;3833330;23;20075;-76
2020/12/26 01:16:54;;;;;;;11.15;6.32;;;;;;;0.65;75.75;100722.19;3834844;23;20029;-76
2020/12/26 01:18:28;;;;;;;9.93;5.95;;;;;;;0.71;75.74;100724.56;3833553;23;20028;-76
2020/12/26 01:19:59;;;;;;;10.75;5.95;;;;;;;0.70;75.65;100730.75;3833835;23;20021;-75
2020/12/26 01:21:31;;;;;;;10.02;5.88;;;;;;;0.72;75.55;100723.63;3832173;23;20020;-76
2020/12/26 01:23:02;;;;;;;10.43;6.45;;;;;;;0.72;75.65;100731.53;3834954;23;20036;-76
2020/12/26 01:24:33;;;;;;;;;;;;;;;0.64;75.79;100741.53;3850530;23;20428;-75
2020/12/26 01:26:04;;;;;;;8.68;4.63;;;;;;;0.70;75.67;100729.91;3854449;23;20507;-75
2020/12/26 01:27:36;;;;;;;11.15;7.13;;;;;;;0.75;75.66;100733.19;3834432;23;20048;-76
2020/12/26 01:29:07;;;;;;;14.05;7.65;;;;;;;0.71;75.80;100732.44;3835960;23;20017;-76
2020/12/26 01:30:39;;;;;;;15.77;8.52;;;;;;;0.67;75.74;100730.00;3832227;23;20075;-75
2020/12/26 01:32:11;;;;;;;13.73;8.40;;;;;;;0.57;76.23;100738.28;3835877;23;20025;-75
2020/12/26 01:33:42;;;;;;;15.27;8.88;;;;;;;0.58;76.36;100731.25;3848716;23;20465;-75
2020/12/26 01:35:13;;;;;;;17.13;8.90;;;;;;;0.58;76.57;100737.38;3853587;23;20266;-76
2020/12/26 01:36:48;;;;;;;12.35;8.60;;;;;;;0.54;76.53;100735.78;3850930;23;20029;-75
2020/12/26 01:38:20;;;;;;;13.15;8.23;;;;;;;0.50;76.73;100738.59;3851758;23;20048;-75
2020/12/26 01:39:51;;;;;;;14.00;7.65;;;;;;;0.51;77.00;100745.59;3836182;23;20032;-75
2020/12/26 01:41:22;;;;;;;16.42;8.18;;;;;;;0.54;76.96;100743.66;3832713;23;20100;-76
2020/12/26 01:42:55;;;;;;;14.32;8.38;;;;;;;0.55;76.49;100752.44;3836184;23;20052;-76
2020/12/26 01:44:26;;;;;;;15.70;8.68;;;;;;;0.52;76.89;100747.28;3832748;23;20075;-76
2020/12/26 01:45:58;;;;;;;14.25;7.68;;;;;;;0.53;76.99;100754.28;3835000;23;20068;-76
2020/12/26 01:47:29;;;;;;;14.48;9.40;;;;;;;0.51;77.36;100756.09;3832870;23;20430;-76
2020/12/26 01:49:01;;;;;;;12.43;7.32;;;;;;;0.51;77.29;100750.84;3835953;23;20049;-75
2020/12/26 01:50:32;;;;;;;11.50;6.32;;;;;;;0.60;76.93;100755.72;3836846;23;20025;-77
2020/12/26 01:52:04;;;;;;;13.57;6.97;;;;;;;0.66;76.64;100744.97;3852794;23;20409;-76
2020/12/26 01:53:35;;;;;;;15.82;7.68;;;;;;;0.68;76.54;100752.78;3848275;23;20080;-76
2020/12/26 01:55:06;;;;;;;11.80;7.18;;;;;;;0.70;76.33;100746.53;3834707;23;20044;-76
2020/12/26 01:56:38;;;;;;;;;;;;;;;0.62;76.44;100743.38;3833820;23;20025;-76
2020/12/26 01:58:12;;;;;;;12.27;7.25;;;;;;;0.68;76.42;100753.63;3834522;23;19916;-76
2020/12/26 01:59:45;;;;;;;10.43;5.97;;;;;;;0.74;76.22;100742.88;3830320;23;20017;-75
2020/12/26 02:01:15;;;;;;;10.63;6.13;;;;;;;0.79;75.98;100745.31;3835303;23;20370;-75
2020/12/26 02:02:46;;;;;;;;;;;;;;;0.71;76.17;100747.41;3844082;23;20021;-75
2020/12/26 02:04:18;;;;;;;11.43;4.90;;;;;;;0.77;76.04;100742.72;3845596;23;19904;-75
2020/12/26 02:05:51;;;;;;;9.07;5.03;;;;;;;0.81;75.76;100737.31;3841470;23;20029;-75
2020/12/26 02:07:24;;;;;;;10.38;5.57;;;;;;;0.82;75.86;100742.50;3837941;23;20028;-76
2020/12/26 02:08:54;;;;;;;12.27;6.00;;;;;;;0.88;75.63;100741.41;3832740;23;20067;-75
2020/12/26 02:10:25;;;;;;;;;;;;;;;0.77;75.78;100734.81;3836058;23;20362;-76
2020/12/26 02:11:57;;;;;;;7.47;4.32;;;;;;;0.87;75.68;100731.78;3832982;23;20003;-75
2020/12/26 02:13:29;;;;;;;9.82;4.40;;;;;;;0.91;75.55;100733.38;3835589;23;20481;-76
2020/12/26 02:15:00;;;;;;;9.23;5.05;;;;;;;0.92;75.49;100729.84;3833352;23;20402;-75
2020/12/26 02:16:42;;;;;;;9.27;4.53;;;;;;;0.91;75.17;100739.50;3834305;23;20025;-76
2020/12/26 02:18:15;;;;;;;9.75;5.55;;;;;;;0.92;75.49;100740.38;3845053;23;20055;-75
2020/12/26 02:19:46;;;;;;;8.43;4.97;;;;;;;0.90;75.61;100737.78;3853621;23;20091;-75
2020/12/26 02:21:18;;;;;;;11.55;5.18;;;;;;;0.91;75.52;100743.91;3838990;23;20028;-76
2020/12/26 02:22:49;;;;;;;11.23;5.82;;;;;;;0.94;75.62;100741.16;3833728;23;20361;-75
2020/12/26 02:24:21;;;;;;;12.05;5.72;;;;;;;0.97;75.57;100742.81;3834472;23;20037;-76
2020/12/26 02:25:54;;;;;;;12.05;6.55;;;;;;;0.97;75.51;100748.06;3837188;23;20040;-76
2020/12/26 02:27:25;;;;;;;10.68;6.68;;;;;;;0.98;75.51;100752.41;3837923;23;20028;-76
2020/12/26 02:28:57;;;;;;;12.57;7.10;;;;;;;0.99;75.60;100749.69;3841528;23;20017;-76
2020/12/26 02:30:28;;;;;;;11.57;6.75;;;;;;;0.94;75.97;100749.06;3837764;23;20025;-76
2020/12/26 02:32:00;;;;;;;11.82;6.93;;;;;;;0.92;75.94;100751.75;3840018;23;20458;-76
2020/12/26 02:33:32;;;;;;;14.68;8.40;;;;;;;0.90;76.00;100752.72;3849578;23;20055;-75
2020/12/26 02:35:04;;;;;;;10.63;6.53;;;;;;;0.89;75.95;100751.88;3855969;23;20024;-76
2020/12/26 02:36:36;;;;;;;13.05;7.65;;;;;;;0.89;75.97;100757.16;3836388;23;20063;-75
2020/12/26 02:38:06;;;;;;;13.15;7.05;;;;;;;0.85;76.14;100757.34;3836870;23;20032;-75
2020/12/26 02:39:38;;;;;;;;;;;;;;;0.68;76.83;100774.69;3835040;23;20548;-75
2020/12/26 02:41:09;;;;;;;12.10;7.60;;;;;;;0.75;76.71;100765.63;3835879;23;19940;-76
2020/12/26 02:42:40;;;;;;;;;;;;;;;0.61;77.01;100773.22;3835637;23;20035;-76
2020/12/26 02:44:11;;;;;;;11.50;7.28;;;;;;;0.68;76.84;100776.47;3836567;23;19938;-76
2020/12/26 02:45:42;;;;;;;;;;;;;;;0.61;76.85;100774.06;3852609;23;20025;-76
2020/12/26 02:47:13;;;;;;;14.65;6.95;;;;;;;0.69;76.28;100770.28;3854766;23;19939;-76
2020/12/26 02:48:44;;;;;;;16.20;8.20;;;;;;;0.61;76.18;100778.50;3835006;23;20092;-75
2020/12/26 02:50:15;;;;;;;13.35;6.95;;;;;;;0.55;76.21;100779.59;3837311;23;20045;-75
2020/12/26 02:51:46;;;;;;;;;;;;;;;0.35;76.55;100776.91;3834644;23;20025;-75
2020/12/26 02:53:18;;;;;;;12.02;6.07;;;;;;;0.41;76.46;100772.25;3837085;23;19917;-75
2020/12/26 02:54:50;;;;;;;11.38;7.40;;;;;;;0.43;76.22;100767.81;3835370;23;20028;-75
2020/12/26 02:56:22;;;;;;;11.57;6.72;;;;;;;0.40;76.39;100774.97;3835344;23;20048;-75
2020/12/26 02:57:53;;;;;;;11.00;6.05;;;;;;;0.40;76.46;100770.53;3854307;23;20025;-75
2020/12/26 02:59:24;;;;;;;11.45;6.40;;;;;;;0.42;76.28;100768.72;3850900;23;20025;-74
2020/12/26 03:00:55;;;;;;;14.20;7.93;;;;;;;0.47;76.27;100769.38;3832493;23;20057;-75
2020/12/26 03:02:26;;;;;;;;;;;;;;;0.40;76.47;100773.19;3834875;23;20458;-75
2020/12/26 03:03:57;;;;;;;10.38;5.88;;;;;;;0.52;76.32;100770.97;3836211;23;19916;-75
2020/12/26 03:05:28;;;;;;;12.40;7.00;;;;;;;0.53;76.29;100776.16;3833013;23;20084;-74
2020/12/26 03:07:00;;;;;;;12.90;7.75;;;;;;;0.53;76.56;100770.06;3836792;23;20025;-74
2020/12/26 03:08:30;;;;;;;12.20;7.30;;;;;;;0.60;76.26;100779.41;3834554;23;20057;-75
2020/12/26 03:10:02;;;;;;;;;;;;;;;0.39;76.24;100770.63;3837481;23;20032;-75
2020/12/26 03:11:34;;;;;;;10.98;5.80;;;;;;;0.46;76.29;100775.59;3833686;23;19916;-75
2020/12/26 03:13:04;;;;;;;12.45;6.45;;;;;;;0.47;76.18;100776.44;3836327;23;20036;-74
2020/12/26 03:14:35;;;;;;;;;;;;;;;0.33;76.23;100771.72;3831152;23;20036;-75
2020/12/26 03:16:07;;;;;;;13.98;5.90;;;;;;;0.43;76.30;100777.44;3816652;23;20316;-74
2020/12/26 03:17:37;;;;;;;10.35;5.97;;;;;;;0.45;76.41;100773.88;3815704;23;20052;-77
2020/12/26 03:19:08;;;;;;;;;;;;;;;0.40;76.37;100774.97;3817370;23;20052;-74
2020/12/26 03:20:40;;;;;;;10.40;5.82;;;;;;;0.47;76.07;100766.75;3815426;23;20384;-75
2020/12/26 03:22:11;;;;;;;10.25;5.35;;;;;;;0.50;75.86;100765.78;3817844;23;20057;-77
2020/12/26 03:23:42;;;;;;;12.57;7.35;;;;;;;0.53;75.96;100770.06;3815689;23;20021;-75
2020/12/26 03:25:15;;;;;;;11.45;6.07;;;;;;;0.52;76.33;100769.19;3817455;23;20639;-75
2020/12/26 03:26:46;;;;;;;11.43;5.65;;;;;;;0.54;75.91;100772.63;3815116;23;20064;-74
2020/12/26 03:28:17;;;;;;;12.38;6.32;;;;;;;0.55;75.89;100770.88;3818598;23;20032;-75
2020/12/26 03:29:48;;;;;;;14.38;8.18;;;;;;;0.55;75.79;100781.38;3814285;23;20037;-75
2020/12/26 03:31:19;;;;;;;16.02;8.35;;;;;;;0.52;76.42;100781.50;3819615;23;20346;-75
2020/12/26 03:32:50;;;;;;;12.98;7.50;;;;;;;0.45;76.70;100791.41;3818670;23;20052;-75
2020/12/26 03:34:21;;;;;;;;;;;;;;;0.25;77.26;100798.31;3819745;23;20498;-75
2020/12/26 03:35:52;;;;;;;15.10;7.60;;;;;;;0.36;77.05;100794.41;3816584;23;19916;-75
2020/12/26 03:37:24;;;;;;;16.25;8.82;;;;;;;0.32;76.47;100792.84;3818539;23;20034;-75
2020/12/26 03:38:55;;;;;;;12.10;7.82;;;;;;;0.30;76.58;100799.00;3815937;23;20026;-76
2020/12/26 03:40:27;;;;;;;11.27;6.40;;;;;;;0.32;76.32;100796.31;3817300;23;20025;-76
2020/12/26 03:41:58;;;;;;;12.63;6.93;;;;;;;0.35;76.30;100798.81;3816244;23;20068;-76
2020/12/26 03:43:29;;;;;;;13.70;7.55;;;;;;;0.33;76.21;100794.56;3819696;23;20032;-76
2020/12/26 03:45:00;;;;;;;13.13;7.05;;;;;;;0.28;76.34;100800.00;3824617;23;20029;-76
2020/12/26 03:46:31;;;;;;;;;;;;;;;0.16;76.58;100796.03;3829795;23;20079;-76
2020/12/26 03:48:02;;;;;;;12.48;6.55;;;;;;;0.21;76.53;100806.38;3836321;23;19916;-76
2020/12/26 03:49:33;;;;;;;11.93;5.82;;;;;;;0.18;76.54;100802.09;3849318;23;20020;-76
2020/12/26 03:51:04;;;;;;;13.60;7.57;;;;;;;0.09;76.70;100808.59;3835723;23;20088;-76
2020/12/26 03:52:36;;;;;;;13.38;7.22;;;;;;;0.14;76.80;100797.91;3831915;23;20121;-76
2020/12/26 03:54:06;;;;;;;16.42;7.88;;;;;;;0.14;76.80;100803.16;3828863;23;20056;-75
2020/12/26 03:55:40;;;;;;;;;;;;;;;0.01;77.04;100805.38;3831617;23;20025;-76
2020/12/26 03:57:14;;;;;;;11.88;6.00;;;;;;;0.07;76.83;100799.91;3826775;23;19916;-76
2020/12/26 03:58:46;;;;;;;10.30;5.75;;;;;;;0.10;76.90;100799.78;3830048;23;20025;-76
2020/12/26 04:00:17;;;;;;;11.75;6.65;;;;;;;0.12;76.84;100797.94;3814438;23;20418;-76
2020/12/26 04:01:49;;;;;;;12.80;6.28;;;;;;;0.12;76.77;100797.09;3817517;23;20025;-75
2020/12/26 04:03:22;;;;;;;10.52;6.13;;;;;;;0.15;76.71;100787.31;3816136;23;20092;-76
2020/12/26 04:04:53;;;;;;;10.50;5.82;;;;;;;0.25;76.79;100794.84;3816808;23;20025;-75
2020/12/26 04:06:24;;;;;;;13.23;7.22;;;;;;;0.31;76.49;100802.47;3814529;23;20021;-75
2020/12/26 04:07:54;;;;;;;;;;;;;;;0.22;77.39;100802.84;3817901;23;20030;-76
2020/12/26 04:09:25;;;;;;;13.45;7.53;;;;;;;0.33;76.99;100807.72;3815403;23;19916;-76
2020/12/26 04:10:57;;;;;;;;;;;;;;;0.15;76.96;100807.47;3817779;23;20029;-75
2020/12/26 04:12:28;;;;;;;16.60;8.25;;;;;;;0.22;76.90;100821.25;3821141;23;19951;-76
2020/12/26 04:13:59;;;;;;;13.10;7.90;;;;;;;0.24;76.85;100816.78;3835947;23;20029;-76
2020/12/26 04:15:30;;;;;;;;;;;;;;;0.06;77.19;100818.34;3848351;23;20078;-76
2020/12/26 04:17:01;;;;;;;15.13;7.53;;;;;;;0.09;77.24;100812.97;3855520;23;19916;-75
2020/12/26 04:18:32;;;;;;;;;;;;;;;0.02;77.50;100819.41;3837105;23;20025;-75
2020/12/26 04:20:03;;;;;;;13.32;7.25;;;;;;;0.10;77.21;100807.66;3836898;23;19916;-76
2020/12/26 04:21:34;;;;;;;19.95;10.60;;;;;;;0.02;77.16;100817.63;3834434;23;20133;-76
2020/12/26 04:23:05;;;;;;;;;;;;;;;-0.27;77.56;100816.09;3836811;23;20028;-75
2020/12/26 04:24:37;;;;;;;16.52;9.38;;;;;;;-0.28;77.84;100811.75;3835322;23;19916;-76
2020/12/26 04:26:09;;;;;;;15.48;8.90;;;;;;;-0.19;77.61;100808.78;3836023;23;20021;-76
2020/12/26 04:27:41;;;;;;;14.95;8.00;;;;;;;-0.10;77.46;100812.84;3834819;23;20365;-76
2020/12/26 04:29:11;;;;;;;11.10;6.38;;;;;;;-0.08;77.38;100817.13;3835719;23;20048;-76
2020/12/26 04:30:42;;;;;;;;;;;;;;;-0.17;77.32;100822.72;3851498;23;20020;-76
2020/12/26 04:32:14;;;;;;;18.08;9.75;;;;;;;-0.17;77.37;100817.47;3854419;23;20360;-75
2020/12/26 04:33:45;;;;;;;16.45;10.05;;;;;;;-0.12;77.34;100812.03;3852471;23;20082;-75
2020/12/26 04:35:19;;;;;;;18.73;10.15;;;;;;;-0.13;77.22;100811.16;3854903;23;20044;-75
2020/12/26 04:36:50;;;;;;;16.45;9.93;;;;;;;-0.11;77.16;100816.38;3851630;23;20079;-76
2020/12/26 04:38:21;;;;;;;14.38;8.65;;;;;;;-0.12;77.31;100819.91;3852320;23;20048;-76
2020/12/26 04:39:52;;;;;;;;;;;;;;;-0.19;77.24;100808.78;3854298;23;20028;-75
2020/12/26 04:41:24;;;;;;;20.13;9.80;;;;;;;-0.17;77.38;100804.31;3851266;23;19915;-75
2020/12/26 04:42:56;;;;;;;16.23;10.02;;;;;;;-0.21;77.29;100805.34;3835651;23;20473;-76
2020/12/26 04:44:28;;;;;;;17.15;9.85;;;;;;;-0.31;77.65;100804.84;3834209;23;20374;-75
2020/12/26 04:46:04;;;;;;;17.02;8.40;;;;;;;-0.27;77.68;100811.66;3844784;23;20450;-75
2020/12/26 04:47:41;;;;;;;14.82;9.05;;;;;;;-0.26;77.39;100796.78;3840548;23;20045;-76
2020/12/26 04:49:12;;;;;;;15.65;8.98;;;;;;;-0.19;77.53;100811.41;3843582;23;20079;-76
2020/12/26 04:50:47;;;;;;;14.02;8.77;;;;;;;-0.16;77.50;100813.94;3839235;23;20340;-76
2020/12/26 04:52:21;;;;;;;16.17;7.70;;;;;;;-0.11;77.28;100817.22;3842616;23;20358;-76
2020/12/26 04:53:53;;;;;;;12.35;7.45;;;;;;;-0.05;77.30;100809.09;3839168;23;20386;-76
2020/12/26 04:55:27;;;;;;;14.52;8.80;;;;;;;-0.03;77.26;100815.16;3842493;23;20101;-76
2020/12/26 04:56:59;;;;;;;14.57;8.13;;;;;;;0.00;77.20;100814.22;3839055;23;20051;-76
2020/12/26 04:58:30;;;;;;;13.88;7.85;;;;;;;0.02;77.12;100812.34;3840940;23;20032;-75
2020/12/26 05:00:01;;;;;;;;;;;;;;;-0.11;77.47;100811.13;3831179;23;20032;-75
2020/12/26 05:01:35;;;;;;;12.70;7.55;;;;;;;-0.04;77.02;100813.44;3834737;23;19924;-75
2020/12/26 05:03:09;;;;;;;14.98;8.10;;;;;;;-0.02;77.14;100810.78;3844663;23;20556;-75
2020/12/26 05:04:41;;;;;;;13.32;8.35;;;;;;;0.01;77.13;100804.53;3853904;23;20434;-76
2020/12/26 05:06:16;;;;;;;11.60;6.82;;;;;;;0.04;77.01;100805.28;3840622;23;20087;-76
2020/12/26 05:07:48;;;;;;;15.45;7.65;;;;;;;0.09;76.88;100799.84;3835223;23;20365;-76
2020/12/26 05:09:20;;;;;;;10.30;6.05;;;;;;;0.13;76.79;100801.44;3846871;23;20020;-76
2020/12/26 05:10:52;;;;;;;12.52;6.60;;;;;;;0.18;76.81;100791.59;3854182;23;20027;-76
2020/12/26 05:12:24;;;;;;;10.82;6.85;;;;;;;0.22;76.49;100787.94;3838483;23;20021;-76
2020/12/26 05:13:56;;;;;;;10.93;5.97;;;;;;;0.22;76.57;100784.44;3835497;23;20438;-76
2020/12/26 05:15:27;;;;;;;11.68;5.97;;;;;;;0.25;76.71;100789.59;3849166;23;20028;-76
2020/12/26 05:17:00;;;;;;;12.43;7.60;;;;;;;0.29;76.63;100784.13;3854500;23;20024;-76
2020/12/26 05:18:31;;;;;;;10.80;6.88;;;;;;;0.34;76.77;100790.97;3850757;22;20020;-76
2020/12/26 05:20:04;;;;;;;10.13;5.78;;;;;;;0.38;76.63;100787.31;3855158;23;20044;-75
2020/12/26 05:21:36;;;;;;;12.63;7.22;;;;;;;0.40;76.50;100786.34;3851359;23;20082;-76
2020/12/26 05:23:09;;;;;;;12.40;7.78;;;;;;;0.41;76.62;100795.94;3855404;23;20024;-76
2020/12/26 05:24:40;;;;;;;12.18;7.43;;;;;;;0.40;76.42;100793.38;3851759;22;20020;-75
2020/12/26 05:26:11;;;;;;;13.55;7.78;;;;;;;0.35;76.47;100798.81;3853439;23;20454;-75
2020/12/26 05:27:44;;;;;;;;;;;;;;;0.18;76.79;100796.84;3852137;23;20021;-76
2020/12/26 05:29:18;;;;;;;14.70;7.60;;;;;;;0.26;77.11;100783.41;3852452;23;20008;-76
2020/12/26 05:30:51;;;;;;;12.50;6.97;;;;;;;0.28;76.91;100789.47;3833948;23;20052;-76
2020/12/26 05:32:23;;;;;;;15.88;9.55;;;;;;;0.29;76.97;100789.41;3834591;23;20036;-76
2020/12/26 05:34:07;;;;;;;12.38;7.22;;;;;;;0.35;76.63;100797.94;3854663;23;20031;-76
2020/12/26 05:35:42;;;;;;;14.00;8.50;;;;;;;0.33;76.50;100784.88;3852003;23;20029;-76
2020/12/26 05:37:16;;;;;;;13.48;7.57;;;;;;;0.23;76.75;100783.53;3854130;23;20024;-76
2020/12/26 05:38:51;;;;;;;9.25;5.88;;;;;;;0.24;76.75;100780.81;3853923;23;20082;-76
2020/12/26 05:40:22;;;;;;;13.30;7.18;;;;;;;0.31;76.86;100776.19;3866404;23;20357;-76
2020/12/26 05:42:10;;;;;;;12.45;7.85;;;;;;;0.30;76.81;100769.19;3864677;23;20069;-77
2020/12/26 05:44:18;;;;;;;15.63;8.40;;;;;;;0.21;77.52;100769.56;3867375;23;20024;-76
2020/12/26 05:46:12;;;;;;;11.30;7.03;;;;;;;0.19;77.95;100771.44;3844579;23;20025;-76
2020/12/26 05:48:15;;;;;;;11.43;7.07;;;;;;;0.25;77.88;100773.81;3845910;23;20044;-76
2020/12/26 05:49:48;;;;;;;11.85;6.72;;;;;;;0.34;77.56;100773.44;3849332;23;20068;-76
2020/12/26 05:51:26;;;;;;;9.85;5.32;;;;;;;0.40;77.09;100773.19;3860669;23;20021;-76
2020/12/26 05:52:58;;;;;;;11.93;6.43;;;;;;;0.46;77.09;100775.59;3867188;23;20036;-76
2020/12/26 05:54:30;;;;;;;13.90;7.05;;;;;;;0.47;77.22;100777.28;3865358;22;20071;-76
2020/12/26 05:56:03;;;;;;;11.27;7.15;;;;;;;0.42;77.34;100776.63;3866241;23;20021;-76
2020/12/26 05:57:52;;;;;;;14.32;7.88;;;;;;;0.29;77.61;100789.41;3864906;23;20024;-76
2020/12/26 05:59:25;;;;;;;12.50;7.40;;;;;;;0.38;77.42;100793.41;3868495;23;20441;-76
2020/12/26 06:01:04;;;;;;;8.93;5.30;;;;;;;0.41;77.07;100788.06;3866494;23;20028;-76
2020/12/26 06:02:38;;;;;;;11.02;5.32;;;;;;;0.38;77.09;100779.44;3867770;23;20033;-76
2020/12/26 06:04:10;;;;;;;8.45;5.00;;;;;;;0.43;77.10;100780.09;3863099;23;20032;-76
2020/12/26 06:05:42;;;;;;;9.13;5.65;;;;;;;0.47;77.11;100782.53;3854133;23;20020;-76
2020/12/26 06:07:13;;;;;;;11.70;6.15;;;;;;;0.50;77.04;100791.22;3854959;23;20055;-75
2020/12/26 06:08:47;;;;;;;;;;;;;;;0.35;77.79;100792.69;3848848;23;20453;-75
2020/12/26 06:10:18;;;;;;;12.77;6.80;;;;;;;0.40;77.57;100793.38;3836623;23;19936;-76
2020/12/26 06:11:49;;;;;;;17.17;7.47;;;;;;;0.34;77.51;100791.84;3834334;23;20107;-75
2020/12/26 06:13:23;;;;;;;13.43;7.00;;;;;;;0.37;77.44;100801.38;3836888;23;20072;-76
2020/12/26 06:14:59;;;;;;;11.18;6.70;;;;;;;0.37;77.18;100797.00;3826732;23;20646;-76
2020/12/26 06:16:30;;;;;;;10.85;6.47;;;;;;;0.40;77.26;100804.75;3822852;23;20028;-76
2020/12/26 06:18:03;;;;;;;;;;;;;;;0.26;77.27;100813.19;3828010;23;20019;-76
2020/12/26 06:19:39;;;;;;;11.30;6.40;;;;;;;0.29;77.32;100814.84;3831908;23;20345;-76
2020/12/26 06:21:13;;;;;;;12.32;7.03;;;;;;;0.30;77.24;100822.69;3826202;23;20041;-75
2020/12/26 06:22:48;;;;;;;16.27;7.07;;;;;;;0.28;77.19;100828.94;3827865;23;20049;-76
2020/12/26 06:24:22;;;;;;;13.57;7.00;;;;;;;0.25;77.29;100823.78;3840883;23;20040;-76
2020/12/26 06:25:55;;;;;;;13.40;6.72;;;;;;;0.26;77.36;100823.72;3849416;23;20133;-76
2020/12/26 06:27:27;;;;;;;11.95;5.70;;;;;;;0.25;77.17;100824.63;3846564;23;20025;-76
2020/12/26 06:29:02;;;;;;;12.15;6.28;;;;;;;0.29;77.22;100814.84;3839642;23;20028;-75
2020/12/26 06:30:38;;;;;;;11.93;6.60;;;;;;;0.32;77.07;100813.88;3835897;23;20097;-75
2020/12/26 06:32:11;;;;;;;12.80;6.70;;;;;;;0.37;77.06;100806.66;3840839;23;20031;-77
2020/12/26 06:33:45;;;;;;;8.77;4.72;;;;;;;0.42;76.97;100813.44;3836918;23;20044;-76
2020/12/26 06:35:17;;;;;;;11.57;6.43;;;;;;;0.38;77.33;100814.47;3837344;23;20071;-76
2020/12/26 06:36:54;;;;;;;14.30;8.13;;;;;;;0.35;77.56;100817.25;3818163;23;20017;-76
2020/12/26 06:38:28;;;;;;;14.57;7.35;;;;;;;0.44;77.41;100816.88;3817676;23;20044;-75
2020/12/26 06:39:59;;;;;;;11.27;6.13;;;;;;;0.51;77.22;100808.72;3819476;23;20236;-75
2020/12/26 06:41:30;;;;;;;13.15;7.43;;;;;;;0.53;77.32;100806.91;3816729;23;20021;-76
2020/12/26 06:43:01;;;;;;;14.02;6.85;;;;;;;0.53;77.18;100818.28;3819916;23;20045;-75
2020/12/26 06:44:35;;;;;;;;;;;;;;;0.38;76.84;100829.41;3821075;23;20036;-76
2020/12/26 06:46:08;;;;;;;15.60;7.10;;;;;;;0.43;77.11;100825.69;3830268;23;19927;-75
2020/12/26 06:47:39;;;;;;;13.73;7.00;;;;;;;0.41;76.88;100834.56;3797671;23;20447;-76
2020/12/26 06:55:03;;;;;;;11.32;6.28;;;;;;;0.17;76.54;100817.97;3841355;23;20025;-76
2020/12/26 06:56:47;;;;;;;13.38;6.53;;;;;;;0.14;76.24;100817.16;3814680;23;20487;-76
2020/12/26 06:58:52;;;;;;;14.57;8.88;;;;;;;0.11;76.00;100814.63;3816126;23;20018;-75
2020/12/26 07:00:27;;;;;;;12.75;7.28;;;;;;;0.12;76.29;100812.88;3805788;23;20049;-76
2020/12/26 07:02:05;;;;;;;14.85;6.45;;;;;;;0.18;76.19;100817.03;3816064;23;20414;-75
2020/12/26 07:03:36;;;;;;;12.45;7.18;;;;;;;0.21;76.37;100811.66;3817452;23;20033;-75
2020/12/26 07:05:08;;;;;;;15.15;8.73;;;;;;;0.14;76.87;100819.78;3812851;23;20033;-76
2020/12/26 07:06:40;;;;;;;16.30;9.70;;;;;;;0.11;77.05;100809.38;3816967;23;20052;-75
2020/12/26 07:08:24;;;;;;;14.55;8.70;;;;;;;0.17;77.22;100812.69;3816396;23;20350;-75
2020/12/26 07:09:56;;;;;;;13.50;7.13;;;;;;;0.27;77.09;100824.59;3817748;23;20021;-77
2020/12/26 07:11:27;;;;;;;16.55;8.00;;;;;;;0.26;77.06;100822.88;3816235;23;20032;-76
2020/12/26 07:12:58;;;;;;;16.52;9.60;;;;;;;0.12;77.08;100824.25;3829887;23;20029;-76
2020/12/26 07:14:30;;;;;;;;;;;;;;;-0.08;77.16;100824.13;3852838;23;20396;-76
2020/12/26 07:16:01;;;;;;;13.48;6.70;;;;;;;0.03;77.32;100819.34;3854639;23;19942;-76
2020/12/26 07:17:33;;;;;;;;;;;;;;;0.01;77.25;100818.53;3852105;23;20470;-74
2020/12/26 07:19:45;;;;;;;12.32;6.25;;;;;;;0.10;76.90;100809.44;3853267;23;20561;-75
2020/12/26 07:21:34;;;;;;;16.17;8.68;;;;;;;0.04;77.07;100823.69;3832731;23;20107;-75
2020/12/26 07:23:26;;;;;;;14.65;8.75;;;;;;;0.03;77.19;100840.38;3835140;23;20025;-76